Time;durP1;ratioP1;P1;durP2;ratioP2;P2;SDS_P1;SDS_P2;PMS_P1;PMS_P2;Temp;Humidity;BMP_temperature;BMP_pressure;BME280_temperature;BME280_humidity;BME280_pressure;Samples;Min_cycle;Max_cycle;Signal;HPM_P1;HPM_P2
2023/10/19 00:00:56;;;;;;;3.40;3.10;;;;;;;;;;5095545;28;20258;-85
2023/10/19 00:03:25;;;;;;;4.78;3.45;;;;;;;;;;5095129;28;20220;-85
2023/10/19 00:05:53;;;;;;;4.25;3.53;;;;;;;;;;5095717;28;20678;-84
2023/10/19 00:08:20;;;;;;;4.03;3.65;;;;;;;;;;5095516;28;20343;-84
2023/10/19 00:10:54;;;;;;;4.32;3.42;;;;;;;;;;5094381;28;20231;-84
2023/10/19 00:13:22;;;;;;;3.50;3.20;;;;;;;;;;5086212;28;20625;-84
2023/10/19 00:15:51;;;;;;;4.18;3.78;;;;;;;;;;5094777;28;20266;-84
2023/10/19 00:18:23;;;;;;;4.20;3.22;;;;;;;;;;5094921;28;20197;-85
2023/10/19 00:20:59;;;;;;;4.75;3.38;;;;;;;;;;5096829;28;20201;-85
2023/10/19 00:23:31;;;;;;;4.38;3.83;;;;;;;;;;5093073;28;20708;-83
2023/10/19 00:25:59;;;;;;;3.97;3.45;;;;;;;;;;5092414;28;20192;-85
2023/10/19 00:28:27;;;;;;;3.95;3.50;;;;;;;;;;5094466;28;20203;-84
2023/10/19 00:30:59;;;;;;;4.57;3.90;;;;;;;;;;5094746;28;20208;-84
2023/10/19 00:33:28;;;;;;;3.58;3.28;;;;;;;;;;5097216;28;20216;-84
2023/10/19 00:36:00;;;;;;;3.75;3.38;;;;;;;;;;5095929;28;20216;-84
2023/10/19 00:38:40;;;;;;;4.15;3.55;;;;;;;;;;5098475;28;20615;-84
2023/10/19 00:41:13;;;;;;;4.70;4.25;;;;;;;;;;5096854;28;20200;-84
2023/10/19 00:43:44;;;;;;;3.53;3.22;;;;;;;;;;5097345;28;20220;-84
2023/10/19 00:46:15;;;;;;;3.90;3.60;;;;;;;;;;5095477;28;20193;-85
2023/10/19 00:48:47;;;;;;;4.55;3.88;;;;;;;;;;5100093;28;20253;-84
2023/10/19 00:51:27;;;;;;;5.47;3.33;;;;;;;;;;5098012;28;20203;-85
2023/10/19 00:53:56;;;;;;;3.70;3.20;;;;;;;;;;5097295;28;20228;-85
2023/10/19 00:56:26;;;;;;;3.88;3.45;;;;;;;;;;5097763;28;20273;-84
2023/10/19 00:59:00;;;;;;;5.97;4.63;;;;;;;;;;5098134;28;20209;-85
2023/10/19 01:01:30;;;;;;;5.35;4.03;;;;;;;;;;5097954;28;20204;-84
2023/10/19 01:03:58;;;;;;;4.72;3.63;;;;;;;;;;5097223;28;20212;-84
2023/10/19 01:06:31;;;;;;;7.00;4.40;;;;;;;;;;5097309;28;20220;-82
2023/10/19 01:08:59;;;;;;;3.75;3.45;;;;;;;;;;5094625;28;20211;-82
2023/10/19 01:11:28;;;;;;;5.07;4.65;;;;;;;;;;5090613;28;20240;-84
2023/10/19 01:13:56;;;;;;;4.80;4.35;;;;;;;;;;5094496;28;20697;-83
2023/10/19 01:16:23;;;;;;;8.70;4.63;;;;;;;;;;5096398;28;20220;-83
2023/10/19 01:18:54;;;;;;;4.45;4.05;;;;;;;;;;5096709;28;20558;-83
2023/10/19 01:21:27;;;;;;;4.40;3.63;;;;;;;;;;5096695;28;20197;-83
2023/10/19 01:23:56;;;;;;;3.97;3.55;;;;;;;;;;5095083;28;20732;-82
2023/10/19 01:26:26;;;;;;;3.65;3.35;;;;;;;;;;5094834;28;20200;-83
2023/10/19 01:29:00;;;;;;;4.28;3.70;;;;;;;;;;5096969;28;20204;-83
2023/10/19 01:31:37;;;;;;;4.88;4.32;;;;;;;;;;5096373;28;20200;-82
2023/10/19 01:34:06;;;;;;;4.18;3.78;;;;;;;;;;5096740;28;20689;-83
2023/10/19 01:36:37;;;;;;;5.47;4.53;;;;;;;;;;5098174;28;20223;-83
2023/10/19 01:39:09;;;;;;;5.00;4.60;;;;;;;;;;5102157;28;20200;-84
2023/10/19 01:41:36;;;;;;;6.72;4.22;;;;;;;;;;5099076;28;20200;-84
2023/10/19 01:44:06;;;;;;;5.30;4.80;;;;;;;;;;5095044;28;20279;-85
2023/10/19 01:46:34;;;;;;;6.05;4.75;;;;;;;;;;5094336;28;20200;-83
2023/10/19 01:49:03;;;;;;;5.05;4.40;;;;;;;;;;5094037;28;20204;-84
2023/10/19 01:51:32;;;;;;;5.85;5.25;;;;;;;;;;5094138;28;20700;-84
2023/10/19 01:54:01;;;;;;;5.40;4.65;;;;;;;;;;5093883;28;20224;-84
2023/10/19 01:56:29;;;;;;;5.03;4.60;;;;;;;;;;5093601;28;20723;-83
2023/10/19 01:58:57;;;;;;;5.28;4.05;;;;;;;;;;5093381;28;20553;-83
2023/10/19 02:01:28;;;;;;;5.80;4.95;;;;;;;;;;5093552;28;20197;-84
2023/10/19 02:03:59;;;;;;;6.57;5.88;;;;;;;;;;5093395;28;20274;-84
2023/10/19 02:06:28;;;;;;;6.75;6.05;;;;;;;;;;5093652;28;20287;-84
2023/10/19 02:09:01;;;;;;;5.40;4.90;;;;;;;;;;5093510;28;20204;-84
2023/10/19 02:11:29;;;;;;;5.97;5.20;;;;;;;;;;5080397;28;20219;-84
2023/10/19 02:13:59;;;;;;;5.82;5.22;;;;;;;;;;5072388;28;20307;-83
2023/10/19 02:16:29;;;;;;;6.22;5.00;;;;;;;;;;5073271;28;20199;-83
2023/10/19 02:18:57;;;;;;;5.50;5.00;;;;;;;;;;5073143;28;20663;-84
2023/10/19 02:21:27;;;;;;;5.00;4.50;;;;;;;;;;5073036;28;20591;-84
2023/10/19 02:23:55;;;;;;;4.85;4.43;;;;;;;;;;5072605;28;20232;-84
2023/10/19 02:26:22;;;;;;;4.63;4.13;;;;;;;;;;5073156;28;20204;-84
2023/10/19 02:28:52;;;;;;;5.15;4.75;;;;;;;;;;5073056;28;20200;-84
2023/10/19 02:31:21;;;;;;;15.30;7.57;;;;;;;;;;5073246;28;20292;-84
2023/10/19 02:33:51;;;;;;;4.35;3.95;;;;;;;;;;5072392;28;20252;-84
2023/10/19 02:36:19;;;;;;;5.57;5.05;;;;;;;;;;5073071;28;20201;-84
2023/10/19 02:38:49;;;;;;;5.28;4.78;;;;;;;;;;5072123;28;20231;-84
2023/10/19 02:41:20;;;;;;;5.10;4.60;;;;;;;;;;5076395;28;20204;-84
2023/10/19 02:43:51;;;;;;;4.60;4.20;;;;;;;;;;5080600;28;20241;-84
2023/10/19 02:46:20;;;;;;;4.40;4.00;;;;;;;;;;5085128;28;20556;-84
2023/10/19 02:48:49;;;;;;;4.40;4.00;;;;;;;;;;5092902;28;20657;-83
2023/10/19 02:51:19;;;;;;;3.83;3.50;;;;;;;;;;5092974;28;20239;-84
2023/10/19 02:53:46;;;;;;;4.13;3.80;;;;;;;;;;5092389;28;20697;-84
2023/10/19 02:56:16;;;;;;;4.60;4.20;;;;;;;;;;5093337;28;20226;-84
2023/10/19 02:58:48;;;;;;;3.78;3.47;;;;;;;;;;5095210;28;20224;-86
2023/10/19 03:01:21;;;;;;;4.95;4.10;;;;;;;;;;5094815;28;20196;-84
2023/10/19 03:03:51;;;;;;;4.40;4.00;;;;;;;;;;5092524;28;20278;-84
2023/10/19 03:06:21;;;;;;;4.57;4.18;;;;;;;;;;5092670;28;20299;-83
2023/10/19 03:08:52;;;;;;;4.25;3.95;;;;;;;;;;5092502;28;20231;-84
2023/10/19 03:11:19;;;;;;;3.88;3.50;;;;;;;;;;5088843;28;20674;-85
2023/10/19 03:13:50;;;;;;;3.83;3.25;;;;;;;;;;5082864;28;20220;-85
2023/10/19 03:16:19;;;;;;;4.10;3.80;;;;;;;;;;5095056;28;20243;-85
2023/10/19 03:18:46;;;;;;;4.35;3.95;;;;;;;;;;5095871;28;20243;-85
2023/10/19 03:21:14;;;;;;;3.58;3.28;;;;;;;;;;5096042;28;20200;-85
2023/10/19 03:23:40;;;;;;;4.13;3.80;;;;;;;;;;5094133;28;20216;-84
2023/10/19 03:29:03;;;;;;;4.53;4.13;;;;;;;;;;5084077;28;20666;-84
2023/10/19 03:31:32;;;;;;;4.00;3.65;;;;;;;;;;5095567;28;20486;-84
2023/10/19 03:34:04;;;;;;;3.70;3.40;;;;;;;;;;5094600;28;20623;-84
2023/10/19 03:36:33;;;;;;;3.85;3.53;;;;;;;;;;5093291;28;20204;-84
2023/10/19 03:39:11;;;;;;;3.90;3.45;;;;;;;;;;5094889;28;20216;-85
2023/10/19 03:41:41;;;;;;;4.25;3.85;;;;;;;;;;5093003;28;20290;-84
2023/10/19 03:44:14;;;;;;;4.15;3.63;;;;;;;;;;5091737;28;20227;-83
2023/10/19 03:46:52;;;;;;;3.45;3.15;;;;;;;;;;5092417;28;20711;-84
2023/10/19 03:49:21;;;;;;;3.28;2.97;;;;;;;;;;5095083;28;20226;-85
2023/10/19 03:52:00;;;;;;;3.95;3.63;;;;;;;;;;5094730;28;20204;-84
2023/10/19 03:54:28;;;;;;;3.58;3.28;;;;;;;;;;5094494;28;20227;-83
2023/10/19 03:56:57;;;;;;;3.17;2.88;;;;;;;;;;5095213;28;20208;-85
2023/10/19 03:59:29;;;;;;;2.63;2.42;;;;;;;;;;5079106;28;20231;-84
2023/10/19 04:01:59;;;;;;;2.42;2.22;;;;;;;;;;5070376;28;20204;-85
2023/10/19 04:04:29;;;;;;;3.03;2.83;;;;;;;;;;5070432;28;20331;-84
2023/10/19 04:06:58;;;;;;;2.95;2.75;;;;;;;;;;5076402;28;20654;-84
2023/10/19 04:09:29;;;;;;;3.50;3.20;;;;;;;;;;5075774;28;21592;-85
2023/10/19 04:11:57;;;;;;;3.42;3.17;;;;;;;;;;5076848;28;20633;-84
2023/10/19 04:14:24;;;;;;;4.03;3.67;;;;;;;;;;5075853;28;20226;-85
2023/10/19 04:16:52;;;;;;;3.00;2.80;;;;;;;;;;5075125;28;20212;-85
2023/10/19 04:19:21;;;;;;;3.38;3.13;;;;;;;;;;5073929;28;20359;-83
2023/10/19 04:21:50;;;;;;;2.70;2.50;;;;;;;;;;5074871;28;20215;-84
2023/10/19 04:24:19;;;;;;;3.53;3.22;;;;;;;;;;5077134;28;20307;-84
2023/10/19 04:26:48;;;;;;;2.53;2.33;;;;;;;;;;5075719;28;20212;-85
2023/10/19 04:29:19;;;;;;;2.97;2.78;;;;;;;;;;5076255;28;20731;-84
2023/10/19 04:31:54;;;;;;;2.97;2.75;;;;;;;;;;5074899;28;20211;-85
2023/10/19 04:34:24;;;;;;;3.00;2.80;;;;;;;;;;5074557;28;20934;-84
2023/10/19 04:36:52;;;;;;;4.03;3.63;;;;;;;;;;5071868;28;20208;-85
2023/10/19 04:39:20;;;;;;;3.08;2.75;;;;;;;;;;5074887;28;20257;-85
2023/10/19 04:41:49;;;;;;;3.08;2.83;;;;;;;;;;5074425;28;20217;-85
2023/10/19 04:44:17;;;;;;;3.55;3.25;;;;;;;;;;5074338;28;20315;-85
2023/10/19 04:46:45;;;;;;;3.47;3.17;;;;;;;;;;5076693;28;20208;-84
2023/10/19 04:49:12;;;;;;;3.58;3.28;;;;;;;;;;5074286;28;20205;-85
2023/10/19 04:51:43;;;;;;;3.83;3.50;;;;;;;;;;5072580;28;20219;-85
2023/10/19 04:54:11;;;;;;;3.38;2.90;;;;;;;;;;5071382;28;20227;-84
2023/10/19 04:56:38;;;;;;;3.67;3.38;;;;;;;;;;5072071;28;20663;-85
2023/10/19 04:59:06;;;;;;;3.30;3.10;;;;;;;;;;5070500;28;20315;-85
2023/10/19 05:01:33;;;;;;;3.80;3.50;;;;;;;;;;5071509;28;20197;-84
2023/10/19 05:04:01;;;;;;;3.78;3.47;;;;;;;;;;5080348;28;20229;-85
2023/10/19 05:06:29;;;;;;;3.95;3.65;;;;;;;;;;5089432;28;20265;-84
2023/10/19 05:08:58;;;;;;;4.10;3.80;;;;;;;;;;5090356;28;20201;-84
2023/10/19 05:11:25;;;;;;;4.88;4.40;;;;;;;;;;5089824;28;20678;-85
2023/10/19 05:13:53;;;;;;;4.25;3.85;;;;;;;;;;5072699;28;20292;-85
2023/10/19 05:16:20;;;;;;;4.50;4.10;;;;;;;;;;5072988;28;20211;-85
2023/10/19 05:18:48;;;;;;;5.47;3.88;;;;;;;;;;5070956;28;20702;-84
2023/10/19 05:21:15;;;;;;;4.05;3.65;;;;;;;;;;5071350;28;20201;-85
2023/10/19 05:23:43;;;;;;;4.28;3.88;;;;;;;;;;5071757;28;20311;-85
2023/10/19 05:26:14;;;;;;;4.00;3.70;;;;;;;;;;5072871;28;20343;-85
2023/10/19 05:28:43;;;;;;;5.90;4.55;;;;;;;;;;5071152;28;20209;-85
2023/10/19 05:31:11;;;;;;;4.47;4.05;;;;;;;;;;5070533;28;20582;-85
2023/10/19 05:33:39;;;;;;;4.55;4.15;;;;;;;;;;5071073;28;20872;-84
2023/10/19 05:36:07;;;;;;;3.97;3.58;;;;;;;;;;5070050;28;20296;-85
2023/10/19 05:38:35;;;;;;;3.95;3.65;;;;;;;;;;5069235;28;20211;-83
2023/10/19 05:41:03;;;;;;;3.15;2.92;;;;;;;;;;5072032;28;20207;-85
2023/10/19 05:43:33;;;;;;;3.40;3.20;;;;;;;;;;5069677;28;20244;-85
2023/10/19 05:46:00;;;;;;;3.47;3.17;;;;;;;;;;5070122;28;20212;-84
2023/10/19 05:48:28;;;;;;;2.55;2.35;;;;;;;;;;5074600;28;20690;-85
2023/10/19 05:50:56;;;;;;;3.75;3.45;;;;;;;;;;5072285;28;20244;-84
2023/10/19 05:53:23;;;;;;;3.78;3.47;;;;;;;;;;5070907;28;21400;-84
2023/10/19 05:55:51;;;;;;;4.38;3.58;;;;;;;;;;5070613;28;20213;-84
2023/10/19 05:58:20;;;;;;;4.45;4.07;;;;;;;;;;5070070;28;20211;-84
2023/10/19 06:00:51;;;;;;;3.88;3.47;;;;;;;;;;5084093;28;20285;-85
2023/10/19 06:03:19;;;;;;;3.55;3.33;;;;;;;;;;5079504;28;20452;-85
2023/10/19 06:05:46;;;;;;;2.83;2.63;;;;;;;;;;5096381;28;20203;-85
2023/10/19 06:08:14;;;;;;;3.42;3.22;;;;;;;;;;5095924;28;20209;-85
2023/10/19 06:10:42;;;;;;;3.58;3.28;;;;;;;;;;5096528;28;20208;-84
2023/10/19 06:13:10;;;;;;;2.65;2.45;;;;;;;;;;5095930;28;20253;-85
2023/10/19 06:15:38;;;;;;;2.85;2.65;;;;;;;;;;5093490;28;20212;-84
2023/10/19 06:18:07;;;;;;;3.40;3.17;;;;;;;;;;5084035;28;20205;-83
2023/10/19 06:20:35;;;;;;;3.42;3.22;;;;;;;;;;5095057;28;20659;-84
2023/10/19 06:23:05;;;;;;;3.00;2.80;;;;;;;;;;5095653;28;20208;-85
2023/10/19 06:25:34;;;;;;;3.28;2.97;;;;;;;;;;5096127;28;20204;-84
2023/10/19 06:28:02;;;;;;;4.28;3.70;;;;;;;;;;5095407;28;20674;-84
2023/10/19 06:30:30;;;;;;;3.55;3.25;;;;;;;;;;5095579;28;20196;-84
2023/10/19 06:33:00;;;;;;;4.13;3.72;;;;;;;;;;5094732;28;20199;-85
2023/10/19 06:35:31;;;;;;;4.07;3.67;;;;;;;;;;5099554;28;20192;-84
2023/10/19 06:37:59;;;;;;;5.30;4.28;;;;;;;;;;5095938;28;20238;-84
2023/10/19 06:40:28;;;;;;;6.32;4.07;;;;;;;;;;5095533;28;20221;-85
2023/10/19 06:42:56;;;;;;;2.95;2.72;;;;;;;;;;5094854;28;20642;-84
2023/10/19 06:45:25;;;;;;;5.18;3.83;;;;;;;;;;5092853;28;20220;-84
2023/10/19 06:47:53;;;;;;;4.30;3.90;;;;;;;;;;5086100;28;20614;-84
2023/10/19 06:50:23;;;;;;;4.05;3.47;;;;;;;;;;5094226;28;20287;-85
2023/10/19 06:52:54;;;;;;;5.05;4.35;;;;;;;;;;5095538;28;20696;-85
2023/10/19 06:55:22;;;;;;;3.17;2.88;;;;;;;;;;5095169;28;20755;-85
2023/10/19 06:57:51;;;;;;;3.40;3.10;;;;;;;;;;5095775;28;20230;-84
2023/10/19 07:00:21;;;;;;;3.50;3.20;;;;;;;;;;5094770;28;20722;-85
2023/10/19 07:02:51;;;;;;;3.20;2.90;;;;;;;;;;5095430;28;20576;-84
2023/10/19 07:05:21;;;;;;;2.72;2.53;;;;;;;;;;5095364;28;20212;-85
2023/10/19 07:07:51;;;;;;;3.60;3.30;;;;;;;;;;5094814;28;20239;-85
2023/10/19 07:10:20;;;;;;;3.92;3.60;;;;;;;;;;5093995;28;20227;-85
2023/10/19 07:12:49;;;;;;;2.55;2.35;;;;;;;;;;5095402;28;20211;-84
2023/10/19 07:15:18;;;;;;;2.85;2.13;;;;;;;;;;5093447;28;20654;-84
2023/10/19 07:17:47;;;;;;;4.60;4.20;;;;;;;;;;5085380;28;20200;-86
2023/10/19 07:20:25;;;;;;;5.13;4.35;;;;;;;;;;5094890;28;20223;-85
2023/10/19 07:22:54;;;;;;;4.60;4.25;;;;;;;;;;5095235;28;20192;-85
2023/10/19 07:25:22;;;;;;;8.13;3.88;;;;;;;;;;5095759;28;20216;-85
2023/10/19 07:27:50;;;;;;;6.35;4.78;;;;;;;;;;5094937;28;20657;-85
2023/10/19 07:30:21;;;;;;;4.72;4.32;;;;;;;;;;5094938;28;20207;-85
2023/10/19 07:32:54;;;;;;;10.60;4.65;;;;;;;;;;5094797;28;20203;-85
2023/10/19 07:35:22;;;;;;;3.35;3.05;;;;;;;;;;5097447;28;20220;-84
2023/10/19 07:37:50;;;;;;;5.28;4.35;;;;;;;;;;5094035;28;20200;-84
2023/10/19 07:40:19;;;;;;;3.33;3.03;;;;;;;;;;5094072;28;20674;-84
2023/10/19 07:42:49;;;;;;;3.13;2.83;;;;;;;;;;5098622;28;20195;-85
2023/10/19 07:45:16;;;;;;;4.00;3.53;;;;;;;;;;5098096;28;20241;-84
2023/10/19 07:47:44;;;;;;;4.68;4.15;;;;;;;;;;5098704;28;20287;-84
2023/10/19 07:50:15;;;;;;;4.47;3.70;;;;;;;;;;5097985;28;20243;-85
2023/10/19 07:52:44;;;;;;;3.53;3.22;;;;;;;;;;5098716;28;20682;-84
2023/10/19 07:55:12;;;;;;;2.47;2.28;;;;;;;;;;5098753;28;20212;-85
2023/10/19 07:57:41;;;;;;;3.05;2.75;;;;;;;;;;5097671;28;20204;-84
2023/10/19 08:00:10;;;;;;;6.53;3.45;;;;;;;;;;5096046;28;20216;-84
2023/10/19 08:02:40;;;;;;;3.15;2.95;;;;;;;;;;5096392;28;20204;-84
2023/10/19 08:05:08;;;;;;;4.10;3.70;;;;;;;;;;5098480;28;20748;-85
2023/10/19 08:07:36;;;;;;;4.03;3.65;;;;;;;;;;5098324;28;20200;-84
2023/10/19 08:10:06;;;;;;;3.45;3.05;;;;;;;;;;5098642;28;20254;-85
2023/10/19 08:12:34;;;;;;;3.63;3.33;;;;;;;;;;5100724;28;20642;-85
2023/10/19 08:15:03;;;;;;;4.97;4.43;;;;;;;;;;5097834;28;20224;-85
2023/10/19 08:17:31;;;;;;;5.35;4.40;;;;;;;;;;5097285;28;20192;-84
2023/10/19 08:19:58;;;;;;;4.93;4.15;;;;;;;;;;5098362;28;20193;-84
2023/10/19 08:22:27;;;;;;;3.28;3.03;;;;;;;;;;5098293;28;20302;-85
2023/10/19 08:24:54;;;;;;;2.85;2.65;;;;;;;;;;5097422;28;20224;-85
2023/10/19 08:27:23;;;;;;;2.92;2.72;;;;;;;;;;5098071;28;20196;-85
2023/10/19 08:29:51;;;;;;;3.53;3.22;;;;;;;;;;5097723;28;20685;-84
2023/10/19 08:32:20;;;;;;;4.43;4.03;;;;;;;;;;5097773;28;20220;-85
2023/10/19 08:34:47;;;;;;;4.13;3.47;;;;;;;;;;5097735;28;20213;-84
2023/10/19 08:37:15;;;;;;;2.72;2.53;;;;;;;;;;5098265;28;20593;-84
2023/10/19 08:39:43;;;;;;;2.92;2.25;;;;;;;;;;5095086;28;20211;-85
2023/10/19 08:42:11;;;;;;;2.17;1.98;;;;;;;;;;5084731;28;20225;-85
2023/10/19 08:44:38;;;;;;;2.47;2.20;;;;;;;;;;5081639;28;20217;-84
2023/10/19 08:47:06;;;;;;;4.50;2.40;;;;;;;;;;5076447;28;20201;-85
2023/10/19 08:49:36;;;;;;;3.05;2.80;;;;;;;;;;5097334;28;20656;-84
2023/10/19 08:52:04;;;;;;;1.92;1.67;;;;;;;;;;5096806;28;20253;-84
2023/10/19 08:54:33;;;;;;;2.00;1.90;;;;;;;;;;5097378;28;20217;-84
2023/10/19 08:57:02;;;;;;;2.50;2.30;;;;;;;;;;5095322;28;20196;-84
2023/10/19 08:59:29;;;;;;;3.42;2.80;;;;;;;;;;5095787;28;20189;-83
2023/10/19 09:02:02;;;;;;;2.70;2.50;;;;;;;;;;5096552;28;20277;-84
2023/10/19 09:04:30;;;;;;;3.50;3.20;;;;;;;;;;5097324;28;20717;-84
2023/10/19 09:06:59;;;;;;;3.88;3.47;;;;;;;;;;5097066;28;20239;-83
2023/10/19 09:09:32;;;;;;;4.38;3.60;;;;;;;;;;5097737;28;20220;-85
2023/10/19 09:12:00;;;;;;;4.63;4.18;;;;;;;;;;5097761;28;20204;-84
2023/10/19 09:14:35;;;;;;;5.35;4.70;;;;;;;;;;5097362;28;20224;-84
2023/10/19 09:17:04;;;;;;;3.70;3.40;;;;;;;;;;5094644;28;20214;-84
2023/10/19 09:19:40;;;;;;;3.45;2.90;;;;;;;;;;5091257;28;20197;-84
2023/10/19 09:22:16;;;;;;;3.78;3.42;;;;;;;;;;5097830;28;20681;-85
2023/10/19 09:24:46;;;;;;;3.08;2.78;;;;;;;;;;5097000;28;20246;-84
2023/10/19 09:27:14;;;;;;;3.67;3.38;;;;;;;;;;5097036;28;20482;-84
2023/10/19 09:29:42;;;;;;;3.13;2.83;;;;;;;;;;5096953;28;20342;-84
2023/10/19 09:32:11;;;;;;;3.38;3.08;;;;;;;;;;5097616;28;20255;-85
2023/10/19 09:34:40;;;;;;;4.35;3.92;;;;;;;;;;5096749;28;20311;-84
2023/10/19 09:37:09;;;;;;;3.63;3.00;;;;;;;;;;5094544;28;20196;-84
2023/10/19 09:39:37;;;;;;;2.42;2.22;;;;;;;;;;5097386;28;20197;-84
2023/10/19 09:42:10;;;;;;;3.25;2.95;;;;;;;;;;5097324;28;20316;-85
2023/10/19 09:44:43;;;;;;;3.53;2.88;;;;;;;;;;5096875;28;20255;-85
2023/10/19 09:47:16;;;;;;;3.20;3.00;;;;;;;;;;5086207;28;20295;-85
2023/10/19 09:49:44;;;;;;;3.83;3.15;;;;;;;;;;5097879;28;20279;-84
2023/10/19 09:52:14;;;;;;;3.03;2.70;;;;;;;;;;5100296;28;20295;-85
2023/10/19 09:54:53;;;;;;;3.15;2.85;;;;;;;;;;5100284;28;20693;-85
2023/10/19 09:57:29;;;;;;;3.00;2.70;;;;;;;;;;5098153;28;20579;-84
2023/10/19 10:00:08;;;;;;;5.20;3.83;;;;;;;;;;5099417;28;20267;-85
2023/10/19 10:02:36;;;;;;;5.40;3.13;;;;;;;;;;5107473;28;20293;-85
2023/10/19 10:05:05;;;;;;;3.40;3.10;;;;;;;;;;5094422;28;20226;-85
2023/10/19 10:07:34;;;;;;;2.90;2.70;;;;;;;;;;5094304;28;20201;-85
2023/10/19 10:10:04;;;;;;;3.35;3.05;;;;;;;;;;5094159;28;20304;-85
2023/10/19 10:12:34;;;;;;;2.90;2.70;;;;;;;;;;5094047;28;20236;-85
2023/10/19 10:15:07;;;;;;;2.42;2.22;;;;;;;;;;5093376;28;20216;-84
2023/10/19 10:17:37;;;;;;;4.30;3.28;;;;;;;;;;5093028;28;20235;-84
2023/10/19 10:20:34;;;;;;;5.50;2.63;;;;;;;;;;5093595;28;20265;-84
2023/10/19 10:23:24;;;;;;;2.63;2.35;;;;;;;;;;5092987;28;20216;-84
2023/10/19 10:25:53;;;;;;;2.88;2.67;;;;;;;;;;5093864;28;20200;-84
2023/10/19 10:28:23;;;;;;;3.10;2.78;;;;;;;;;;5093863;28;20246;-84
2023/10/19 10:31:14;;;;;;;3.85;3.00;;;;;;;;;;5110311;28;20200;-84
2023/10/19 10:33:46;;;;;;;3.10;2.90;;;;;;;;;;5114101;28;20220;-84
2023/10/19 10:36:14;;;;;;;2.30;2.10;;;;;;;;;;5114672;28;20193;-83
2023/10/19 10:38:43;;;;;;;3.13;2.83;;;;;;;;;;5104943;28;20203;-85
2023/10/19 10:41:11;;;;;;;3.33;2.70;;;;;;;;;;5099393;28;20291;-85
2023/10/19 10:43:56;;;;;;;3.10;2.67;;;;;;;;;;5098852;28;20610;-85
2023/10/19 10:46:27;;;;;;;2.80;2.60;;;;;;;;;;5098860;28;20219;-85
2023/10/19 10:48:55;;;;;;;3.03;2.70;;;;;;;;;;5097295;28;20232;-85
2023/10/19 10:51:24;;;;;;;3.80;3.40;;;;;;;;;;5094010;28;20482;-85
2023/10/19 10:53:56;;;;;;;3.22;2.60;;;;;;;;;;5093224;28;20224;-85
2023/10/19 10:56:24;;;;;;;3.42;3.13;;;;;;;;;;5093266;28;20215;-86
2023/10/19 10:58:53;;;;;;;3.33;2.80;;;;;;;;;;5093018;28;20299;-84
2023/10/19 11:01:30;;;;;;;3.58;3.00;;;;;;;;;;5093386;28;20204;-84
2023/10/19 11:04:08;;;;;;;3.35;2.85;;;;;;;;;;5093049;28;20228;-85
2023/10/19 11:06:46;;;;;;;2.85;2.65;;;;;;;;;;5093627;28;20653;-85
2023/10/19 11:09:18;;;;;;;4.15;2.90;;;;;;;;;;5092633;28;20196;-85
2023/10/19 11:11:45;;;;;;;3.83;2.38;;;;;;;;;;5092963;28;20253;-84
2023/10/19 11:14:13;;;;;;;3.00;2.47;;;;;;;;;;5092242;28;20308;-85
2023/10/19 11:16:41;;;;;;;2.40;2.20;;;;;;;;;;5094246;28;20601;-84
2023/10/19 11:19:09;;;;;;;3.60;1.77;;;;;;;;;;5092733;28;20299;-84
2023/10/19 11:21:37;;;;;;;3.45;2.90;;;;;;;;;;5092742;28;20408;-84
2023/10/19 11:24:07;;;;;;;2.60;2.40;;;;;;;;;;5092333;28;20230;-85
2023/10/19 11:26:41;;;;;;;3.17;2.30;;;;;;;;;;5094262;28;20192;-84
2023/10/19 11:29:09;;;;;;;2.00;1.80;;;;;;;;;;5092751;28;20226;-85
2023/10/19 11:31:39;;;;;;;1.90;1.80;;;;;;;;;;5092606;28;20200;-84
2023/10/19 11:34:08;;;;;;;3.10;2.08;;;;;;;;;;5091959;28;20228;-85
2023/10/19 11:36:36;;;;;;;2.38;2.17;;;;;;;;;;5092736;28;20196;-84
2023/10/19 11:39:08;;;;;;;4.65;2.90;;;;;;;;;;5092584;28;20296;-85
2023/10/19 11:41:37;;;;;;;2.65;1.90;;;;;;;;;;5096790;28;20216;-85
2023/10/19 11:44:04;;;;;;;3.05;2.15;;;;;;;;;;5092127;28;20251;-84
2023/10/19 11:46:32;;;;;;;2.58;2.17;;;;;;;;;;5089330;28;20287;-84
2023/10/19 11:48:59;;;;;;;3.63;1.73;;;;;;;;;;5092196;28;20196;-84
2023/10/19 11:51:27;;;;;;;2.05;1.95;;;;;;;;;;5092618;28;20200;-84
2023/10/19 11:53:55;;;;;;;2.22;2.03;;;;;;;;;;5092184;28;20316;-84
2023/10/19 11:56:25;;;;;;;2.53;2.33;;;;;;;;;;5092485;28;20200;-84
2023/10/19 11:58:53;;;;;;;2.42;2.10;;;;;;;;;;5092536;28;20204;-84
2023/10/19 12:01:21;;;;;;;2.20;2.10;;;;;;;;;;5093937;28;20349;-84
2023/10/19 12:03:49;;;;;;;4.38;2.35;;;;;;;;;;5092889;28;20222;-84
2023/10/19 12:06:19;;;;;;;2.88;2.28;;;;;;;;;;5094714;28;20204;-83
2023/10/19 12:08:48;;;;;;;2.25;2.05;;;;;;;;;;5094641;28;20218;-84
2023/10/19 12:11:16;;;;;;;2.00;1.90;;;;;;;;;;5094075;28;20204;-84
2023/10/19 12:13:44;;;;;;;2.33;2.13;;;;;;;;;;5094548;28;20228;-84
2023/10/19 12:16:15;;;;;;;3.05;2.72;;;;;;;;;;5093820;28;20220;-84
2023/10/19 12:18:43;;;;;;;2.80;2.53;;;;;;;;;;5094644;28;20241;-83
2023/10/19 12:21:12;;;;;;;3.00;2.70;;;;;;;;;;5094178;28;20210;-84
2023/10/19 12:23:41;;;;;;;2.78;2.58;;;;;;;;;;5094220;28;20224;-84
2023/10/19 12:26:11;;;;;;;2.60;2.40;;;;;;;;;;5095200;28;20204;-84
2023/10/19 12:28:39;;;;;;;2.38;2.17;;;;;;;;;;5098566;28;20307;-84
2023/10/19 12:31:08;;;;;;;2.10;1.95;;;;;;;;;;5098534;28;20196;-84
2023/10/19 12:33:38;;;;;;;3.05;1.80;;;;;;;;;;5097691;28;20228;-83
2023/10/19 12:36:23;;;;;;;1.58;1.48;;;;;;;;;;5098495;28;20289;-84
2023/10/19 12:38:50;;;;;;;2.33;2.20;;;;;;;;;;5098675;28;20211;-84
2023/10/19 12:41:19;;;;;;;2.90;2.70;;;;;;;;;;5098853;28;20307;-84
2023/10/19 12:43:46;;;;;;;1.85;1.73;;;;;;;;;;5098423;28;20299;-85
2023/10/19 12:46:15;;;;;;;2.78;2.58;;;;;;;;;;5095885;28;20196;-85
2023/10/19 12:48:46;;;;;;;3.20;2.25;;;;;;;;;;5092294;28;20192;-85
2023/10/19 12:51:15;;;;;;;2.53;2.15;;;;;;;;;;5098426;28;20200;-84
2023/10/19 12:53:42;;;;;;;2.25;2.15;;;;;;;;;;5098364;28;20220;-84
2023/10/19 12:56:10;;;;;;;2.35;2.05;;;;;;;;;;5098597;28;20192;-84
2023/10/19 12:58:41;;;;;;;2.05;1.85;;;;;;;;;;5097786;28;20200;-84
2023/10/19 13:01:16;;;;;;;2.67;2.47;;;;;;;;;;5097371;28;20591;-84
2023/10/19 13:03:46;;;;;;;3.50;2.65;;;;;;;;;;5097348;28;20228;-84
2023/10/19 13:06:14;;;;;;;2.97;2.33;;;;;;;;;;5098076;28;20200;-84
2023/10/19 13:08:41;;;;;;;2.88;2.67;;;;;;;;;;5097491;28;20791;-84
2023/10/19 13:11:10;;;;;;;2.67;2.47;;;;;;;;;;5097689;28;20208;-85
2023/10/19 13:13:37;;;;;;;3.25;2.95;;;;;;;;;;5097534;28;20367;-84
2023/10/19 13:16:08;;;;;;;2.78;2.53;;;;;;;;;;5095277;28;20208;-84
2023/10/19 13:18:36;;;;;;;2.88;2.53;;;;;;;;;;5085148;28;20227;-85
2023/10/19 13:21:05;;;;;;;3.38;2.70;;;;;;;;;;5078459;28;20196;-84
2023/10/19 13:23:34;;;;;;;2.13;2.03;;;;;;;;;;5079638;28;20221;-85
2023/10/19 13:26:16;;;;;;;3.00;2.65;;;;;;;;;;5080885;28;20209;-85
2023/10/19 13:28:44;;;;;;;2.20;2.10;;;;;;;;;;5081583;28;20212;-85
2023/10/19 13:31:13;;;;;;;3.95;3.15;;;;;;;;;;5081532;28;20212;-86
2023/10/19 13:33:41;;;;;;;2.38;2.17;;;;;;;;;;5081510;28;20235;-86
2023/10/19 13:36:10;;;;;;;1.95;1.85;;;;;;;;;;5079272;28;20201;-85
2023/10/19 13:38:38;;;;;;;3.00;2.30;;;;;;;;;;5076997;28;20569;-85
2023/10/19 13:41:09;;;;;;;3.22;3.03;;;;;;;;;;5077455;28;20197;-85
2023/10/19 13:43:37;;;;;;;2.50;2.30;;;;;;;;;;5080486;28;20221;-86
2023/10/19 13:46:04;;;;;;;2.50;2.20;;;;;;;;;;5081487;28;20217;-85
2023/10/19 13:48:32;;;;;;;2.75;2.15;;;;;;;;;;5085575;28;20200;-85
2023/10/19 13:51:05;;;;;;;2.67;1.85;;;;;;;;;;5097727;28;20200;-85
2023/10/19 13:53:34;;;;;;;2.50;2.30;;;;;;;;;;5097673;28;20256;-85
2023/10/19 13:56:02;;;;;;;3.15;2.22;;;;;;;;;;5098489;28;20248;-85
2023/10/19 13:58:33;;;;;;;2.03;1.92;;;;;;;;;;5101454;28;20200;-85
2023/10/19 14:01:00;;;;;;;2.97;2.78;;;;;;;;;;5100844;28;20200;-85
2023/10/19 14:03:28;;;;;;;2.60;2.40;;;;;;;;;;5101582;28;20319;-86
2023/10/19 14:05:56;;;;;;;5.80;3.58;;;;;;;;;;5098996;28;20397;-86
2023/10/19 14:08:24;;;;;;;2.53;2.33;;;;;;;;;;5099368;28;20204;-85
2023/10/19 14:10:52;;;;;;;3.75;3.17;;;;;;;;;;5099714;28;20218;-86
2023/10/19 14:13:20;;;;;;;2.65;2.45;;;;;;;;;;5098814;28;20200;-85
2023/10/19 14:15:47;;;;;;;5.45;2.97;;;;;;;;;;5098661;28;20216;-85
2023/10/19 14:18:16;;;;;;;2.90;2.22;;;;;;;;;;5090404;28;20256;-85
2023/10/19 14:20:44;;;;;;;4.13;3.20;;;;;;;;;;5099179;28;20200;-85
2023/10/19 14:23:11;;;;;;;3.45;2.70;;;;;;;;;;5097417;28;20714;-85
2023/10/19 14:25:40;;;;;;;3.70;2.58;;;;;;;;;;5100680;28;20224;-85
2023/10/19 14:28:09;;;;;;;2.75;2.55;;;;;;;;;;5095248;28;20262;-85
2023/10/19 14:30:37;;;;;;;2.13;1.92;;;;;;;;;;5097457;28;20208;-86
2023/10/19 14:33:10;;;;;;;4.18;3.83;;;;;;;;;;5099475;28;20283;-86
2023/10/19 14:35:41;;;;;;;4.57;2.70;;;;;;;;;;5099539;28;20697;-85
2023/10/19 14:38:11;;;;;;;2.70;2.50;;;;;;;;;;5098223;28;20212;-85
2023/10/19 14:40:38;;;;;;;3.58;2.97;;;;;;;;;;5091700;28;20199;-85
2023/10/19 14:43:06;;;;;;;3.08;2.78;;;;;;;;;;5084865;28;20291;-86
2023/10/19 14:45:36;;;;;;;2.35;2.22;;;;;;;;;;5100166;28;20207;-86
2023/10/19 14:48:08;;;;;;;1.90;1.80;;;;;;;;;;5096067;28;20212;-85
2023/10/19 14:50:37;;;;;;;2.17;1.98;;;;;;;;;;5095360;28;20215;-85
2023/10/19 14:53:05;;;;;;;4.00;2.88;;;;;;;;;;5096017;28;20560;-85
2023/10/19 14:55:33;;;;;;;3.25;2.92;;;;;;;;;;5096098;28;20224;-85
2023/10/19 14:58:00;;;;;;;3.22;2.00;;;;;;;;;;5099521;28;20599;-85
2023/10/19 15:00:32;;;;;;;1.92;1.73;;;;;;;;;;5099624;28;20204;-85